sensor_id;sensor_type;location;lat;lon;timestamp;pressure;altitude;pressure_sealevel;temperature;humidity
54882;BME280;40775;51.448;4.742;2022-07-29T00:01:41;101547.53;;;19.92;54.93
54882;BME280;40775;51.448;4.742;2022-07-29T00:04:08;101546.66;;;19.89;54.87
54882;BME280;40775;51.448;4.742;2022-07-29T00:06:36;101548.44;;;19.88;54.96
54882;BME280;40775;51.448;4.742;2022-07-29T00:09:03;101543.13;;;19.88;55.11
54882;BME280;40775;51.448;4.742;2022-07-29T00:11:31;101531.59;;;19.86;55.35
54882;BME280;40775;51.448;4.742;2022-07-29T00:13:58;101533.38;;;19.84;55.04
54882;BME280;40775;51.448;4.742;2022-07-29T00:16:25;101536.94;;;19.83;55.38
54882;BME280;40775;51.448;4.742;2022-07-29T00:18:53;101534.31;;;19.80;55.60
54882;BME280;40775;51.448;4.742;2022-07-29T00:21:20;101531.66;;;19.77;55.39
54882;BME280;40775;51.448;4.742;2022-07-29T00:23:48;101528.13;;;19.75;55.90
54882;BME280;40775;51.448;4.742;2022-07-29T00:26:15;101533.44;;;19.72;55.64
54882;BME280;40775;51.448;4.742;2022-07-29T00:28:42;101527.25;;;19.70;55.84
54882;BME280;40775;51.448;4.742;2022-07-29T00:31:10;101529.03;;;19.69;56.11
54882;BME280;40775;51.448;4.742;2022-07-29T00:33:38;101515.72;;;19.66;56.35
54882;BME280;40775;51.448;4.742;2022-07-29T00:36:05;101519.25;;;19.70;55.92
54882;BME280;40775;51.448;4.742;2022-07-29T00:38:33;101513.03;;;19.72;55.79
54882;BME280;40775;51.448;4.742;2022-07-29T00:41:00;101504.16;;;19.70;56.13
54882;BME280;40775;51.448;4.742;2022-07-29T00:43:27;101505.94;;;19.73;56.13
54882;BME280;40775;51.448;4.742;2022-07-29T00:45:55;101510.38;;;19.71;55.81
54882;BME280;40775;51.448;4.742;2022-07-29T00:48:22;101508.59;;;19.70;55.85
54882;BME280;40775;51.448;4.742;2022-07-29T00:50:50;101495.31;;;19.65;56.46
54882;BME280;40775;51.448;4.742;2022-07-29T00:53:19;101498.00;;;19.64;56.53
54882;BME280;40775;51.448;4.742;2022-07-29T00:55:48;101494.44;;;19.63;56.46
54882;BME280;40775;51.448;4.742;2022-07-29T00:58:15;101492.72;;;19.58;56.56
54882;BME280;40775;51.448;4.742;2022-07-29T01:00:43;101494.50;;;19.57;56.67
54882;BME280;40775;51.448;4.742;2022-07-29T01:03:12;101500.72;;;19.55;57.06
54882;BME280;40775;51.448;4.742;2022-07-29T01:05:41;101497.19;;;19.48;57.54
54882;BME280;40775;51.448;4.742;2022-07-29T01:08:17;101497.19;;;19.48;57.67
54882;BME280;40775;51.448;4.742;2022-07-29T01:10:46;101501.63;;;19.46;57.55
54882;BME280;40775;51.448;4.742;2022-07-29T01:13:15;101506.06;;;19.45;57.49
54882;BME280;40775;51.448;4.742;2022-07-29T01:16:10;101498.97;;;19.46;57.22
54882;BME280;40775;51.448;4.742;2022-07-29T01:18:44;101501.59;;;19.44;57.55
54882;BME280;40775;51.448;4.742;2022-07-29T01:26:52;101493.69;;;19.37;57.87
54882;BME280;40775;51.448;4.742;2022-07-29T01:29:36;101487.44;;;19.39;58.12
54882;BME280;40775;51.448;4.742;2022-07-29T01:32:16;101487.47;;;19.36;57.86
54882;BME280;40775;51.448;4.742;2022-07-29T01:37:45;101493.66;;;19.38;57.72
54882;BME280;40775;51.448;4.742;2022-07-29T01:42:58;101495.47;;;19.33;57.93
54882;BME280;40775;51.448;4.742;2022-07-29T01:45:33;101490.16;;;19.30;58.14
54882;BME280;40775;51.448;4.742;2022-07-29T01:48:15;101480.44;;;19.25;58.36
54882;BME280;40775;51.448;4.742;2022-07-29T01:51:25;101483.09;;;19.25;58.46
54882;BME280;40775;51.448;4.742;2022-07-29T01:56:57;101473.34;;;19.24;58.53
54882;BME280;40775;51.448;4.742;2022-07-29T01:59:26;101471.59;;;19.23;58.59
54882;BME280;40775;51.448;4.742;2022-07-29T02:01:57;101464.47;;;19.23;58.31
54882;BME280;40775;51.448;4.742;2022-07-29T02:04:26;101464.47;;;19.23;58.59
54882;BME280;40775;51.448;4.742;2022-07-29T02:07:00;101460.94;;;19.21;58.57
54882;BME280;40775;51.448;4.742;2022-07-29T02:09:31;101458.28;;;19.15;59.20
54882;BME280;40775;51.448;4.742;2022-07-29T02:12:02;101460.94;;;19.15;58.90
54882;BME280;40775;51.448;4.742;2022-07-29T02:14:36;101466.31;;;19.06;59.29
54882;BME280;40775;51.448;4.742;2022-07-29T02:17:04;101463.66;;;19.07;59.30
54882;BME280;40775;51.448;4.742;2022-07-29T02:19:32;101463.69;;;19.04;59.37
54882;BME280;40775;51.448;4.742;2022-07-29T02:22:02;101469.00;;;19.03;59.56
54882;BME280;40775;51.448;4.742;2022-07-29T02:24:30;101474.34;;;19.01;59.58
54882;BME280;40775;51.448;4.742;2022-07-29T02:26:59;101479.66;;;19.00;59.80
54882;BME280;40775;51.448;4.742;2022-07-29T02:29:29;101467.28;;;18.93;59.90
54882;BME280;40775;51.448;4.742;2022-07-29T02:31:59;101469.06;;;18.92;59.85
54882;BME280;40775;51.448;4.742;2022-07-29T02:34:28;101472.63;;;18.93;59.92
54882;BME280;40775;51.448;4.742;2022-07-29T02:36:56;101462.84;;;18.89;59.99
54882;BME280;40775;51.448;4.742;2022-07-29T02:39:25;101471.72;;;18.88;60.24
54882;BME280;40775;51.448;4.742;2022-07-29T02:42:01;101478.81;;;18.84;60.32
54882;BME280;40775;51.448;4.742;2022-07-29T02:44:30;101472.63;;;18.83;60.38
54882;BME280;40775;51.448;4.742;2022-07-29T02:50:17;101473.53;;;18.79;60.70
54882;BME280;40775;51.448;4.742;2022-07-29T02:52:57;101465.56;;;18.79;60.63
54882;BME280;40775;51.448;4.742;2022-07-29T02:55:29;101459.38;;;18.74;61.03
54882;BME280;40775;51.448;4.742;2022-07-29T03:01:25;101445.19;;;18.69;61.03
54882;BME280;40775;51.448;4.742;2022-07-29T03:03:56;101449.63;;;18.70;61.11
54882;BME280;40775;51.448;4.742;2022-07-29T03:06:25;101449.66;;;18.67;60.94
54882;BME280;40775;51.448;4.742;2022-07-29T03:09:08;101450.56;;;18.63;61.35
54882;BME280;40775;51.448;4.742;2022-07-29T03:11:41;101444.34;;;18.63;61.12
54882;BME280;40775;51.448;4.742;2022-07-29T03:14:18;101448.75;;;18.62;61.04
54882;BME280;40775;51.448;4.742;2022-07-29T03:16:47;101449.59;;;18.61;61.08
54882;BME280;40775;51.448;4.742;2022-07-29T03:19:16;101451.38;;;18.58;61.61
54882;BME280;40775;51.448;4.742;2022-07-29T03:21:43;101452.28;;;18.58;61.33
54882;BME280;40775;51.448;4.742;2022-07-29T03:24:23;101448.75;;;18.56;61.65
54882;BME280;40775;51.448;4.742;2022-07-29T03:26:51;101459.38;;;18.53;61.75
54882;BME280;40775;51.448;4.742;2022-07-29T03:29:18;101458.50;;;18.51;61.61
54882;BME280;40775;51.448;4.742;2022-07-29T03:31:46;101458.53;;;18.48;61.96
54882;BME280;40775;51.448;4.742;2022-07-29T03:34:14;101464.72;;;18.47;61.72
54882;BME280;40775;51.448;4.742;2022-07-29T03:36:42;101471.81;;;18.45;62.09
54882;BME280;40775;51.448;4.742;2022-07-29T03:39:11;101467.38;;;18.47;62.13
54882;BME280;40775;51.448;4.742;2022-07-29T03:41:42;101466.50;;;18.45;62.13
54882;BME280;40775;51.448;4.742;2022-07-29T03:44:11;101462.97;;;18.43;62.22
54882;BME280;40775;51.448;4.742;2022-07-29T03:46:42;101462.97;;;18.43;62.02
54882;BME280;40775;51.448;4.742;2022-07-29T03:49:11;101455.00;;;18.40;62.31
54882;BME280;40775;51.448;4.742;2022-07-29T03:51:41;101462.97;;;18.43;62.05
54882;BME280;40775;51.448;4.742;2022-07-29T03:54:09;101452.34;;;18.40;62.34
54882;BME280;40775;51.448;4.742;2022-07-29T03:56:40;101460.31;;;18.34;62.08
54882;BME280;40775;51.448;4.742;2022-07-29T03:59:08;101467.41;;;18.32;62.09
54882;BME280;40775;51.448;4.742;2022-07-29T04:01:37;101458.56;;;18.25;62.34
54882;BME280;40775;51.448;4.742;2022-07-29T04:04:06;101461.22;;;18.25;62.57
54882;BME280;40775;51.448;4.742;2022-07-29T04:06:41;101463.88;;;18.23;62.60
54882;BME280;40775;51.448;4.742;2022-07-29T04:09:10;101461.22;;;18.22;62.78
54882;BME280;40775;51.448;4.742;2022-07-29T04:11:41;101469.22;;;18.14;63.21
54882;BME280;40775;51.448;4.742;2022-07-29T04:14:29;101470.09;;;18.13;63.33
54882;BME280;40775;51.448;4.742;2022-07-29T04:16:56;101459.47;;;18.10;63.19
54882;BME280;40775;51.448;4.742;2022-07-29T04:19:24;101463.88;;;18.05;63.46
54882;BME280;40775;51.448;4.742;2022-07-29T04:21:51;101460.34;;;18.03;63.73
54882;BME280;40775;51.448;4.742;2022-07-29T04:24:19;101466.53;;;18.05;63.62
54882;BME280;40775;51.448;4.742;2022-07-29T04:26:47;101464.78;;;18.10;63.60
54882;BME280;40775;51.448;4.742;2022-07-29T04:29:15;101469.19;;;18.05;63.50
54882;BME280;40775;51.448;4.742;2022-07-29T04:31:43;101466.53;;;18.04;63.71
54882;BME280;40775;51.448;4.742;2022-07-29T04:34:11;101464.78;;;18.04;63.74
54882;BME280;40775;51.448;4.742;2022-07-29T04:36:39;101467.44;;;18.04;63.82
54882;BME280;40775;51.448;4.742;2022-07-29T04:39:07;101466.53;;;18.02;63.73
54882;BME280;40775;51.448;4.742;2022-07-29T04:41:35;101463.88;;;18.02;63.76
54882;BME280;40775;51.448;4.742;2022-07-29T04:44:03;101469.19;;;18.02;64.04
54882;BME280;40775;51.448;4.742;2022-07-29T04:46:38;101478.94;;;18.00;64.04
54882;BME280;40775;51.448;4.742;2022-07-29T04:49:06;101478.06;;;18.01;63.83
54882;BME280;40775;51.448;4.742;2022-07-29T04:51:34;101468.31;;;18.00;64.10
54882;BME280;40775;51.448;4.742;2022-07-29T04:54:02;101472.75;;;18.00;63.94
54882;BME280;40775;51.448;4.742;2022-07-29T04:56:29;101474.53;;;17.98;64.29
54882;BME280;40775;51.448;4.742;2022-07-29T04:58:57;101470.09;;;17.95;64.12
54882;BME280;40775;51.448;4.742;2022-07-29T05:01:24;101480.72;;;17.94;64.38
54882;BME280;40775;51.448;4.742;2022-07-29T05:03:52;101472.75;;;17.95;64.42
54882;BME280;40775;51.448;4.742;2022-07-29T05:06:26;101478.94;;;17.91;64.64
54882;BME280;40775;51.448;4.742;2022-07-29T05:08:53;101490.47;;;17.91;64.53
54882;BME280;40775;51.448;4.742;2022-07-29T05:11:21;101484.25;;;17.91;64.60
54882;BME280;40775;51.448;4.742;2022-07-29T05:13:53;101486.91;;;17.92;64.45
54882;BME280;40775;51.448;4.742;2022-07-29T05:16:20;101486.91;;;17.92;64.67
54882;BME280;40775;51.448;4.742;2022-07-29T05:18:48;101493.13;;;17.93;64.68
54882;BME280;40775;51.448;4.742;2022-07-29T05:21:15;101487.81;;;17.91;64.83
54882;BME280;40775;51.448;4.742;2022-07-29T05:23:43;101489.59;;;17.91;65.07
54882;BME280;40775;51.448;4.742;2022-07-29T05:26:10;101496.66;;;17.97;65.00
54882;BME280;40775;51.448;4.742;2022-07-29T05:28:38;101501.09;;;18.02;64.95
54882;BME280;40775;51.448;4.742;2022-07-29T05:31:05;101504.63;;;18.03;64.61
54882;BME280;40775;51.448;4.742;2022-07-29T05:33:33;101520.44;;;20.47;60.96
54882;BME280;40775;51.448;4.742;2022-07-29T05:36:06;101511.41;;;21.40;57.71
54882;BME280;40775;51.448;4.742;2022-07-29T05:38:37;101514.00;;;22.05;55.57
54882;BME280;40775;51.448;4.742;2022-07-29T05:41:05;101518.66;;;22.47;54.24
54882;BME280;40775;51.448;4.742;2022-07-29T05:43:33;101516.31;;;22.77;53.18
54882;BME280;40775;51.448;4.742;2022-07-29T05:46:01;101522.97;;;23.02;52.23
54882;BME280;40775;51.448;4.742;2022-07-29T05:48:28;101527.91;;;23.22;51.52
54882;BME280;40775;51.448;4.742;2022-07-29T05:50:56;101522.22;;;23.37;51.13
54882;BME280;40775;51.448;4.742;2022-07-29T05:53:24;101520.13;;;23.50;50.82
54882;BME280;40775;51.448;4.742;2022-07-29T05:55:51;101526.19;;;23.61;50.46
54882;BME280;40775;51.448;4.742;2022-07-29T05:58:19;101525.97;;;23.70;50.04
54882;BME280;40775;51.448;4.742;2022-07-29T06:00:47;101518.63;;;23.79;49.83
54882;BME280;40775;51.448;4.742;2022-07-29T06:03:14;101520.25;;;23.86;49.56
54882;BME280;40775;51.448;4.742;2022-07-29T06:05:41;101521.88;;;23.93;49.04
54882;BME280;40775;51.448;4.742;2022-07-29T06:08:09;101523.56;;;23.97;49.14
54882;BME280;40775;51.448;4.742;2022-07-29T06:10:37;101520.75;;;24.01;48.93
54882;BME280;40775;51.448;4.742;2022-07-29T06:13:04;101515.28;;;24.06;48.77
54882;BME280;40775;51.448;4.742;2022-07-29T06:15:32;101525.00;;;24.12;48.66
54882;BME280;40775;51.448;4.742;2022-07-29T06:18:00;101529.38;;;24.16;48.38
54882;BME280;40775;51.448;4.742;2022-07-29T06:20:31;101524.78;;;24.19;48.28
54882;BME280;40775;51.448;4.742;2022-07-29T06:22:59;101527.34;;;24.24;48.31
54882;BME280;40775;51.448;4.742;2022-07-29T06:25:27;101534.44;;;24.28;48.18
54882;BME280;40775;51.448;4.742;2022-07-29T06:27:59;101532.63;;;24.28;48.07
54882;BME280;40775;51.448;4.742;2022-07-29T06:30:26;101541.53;;;24.30;48.17
54882;BME280;40775;51.448;4.742;2022-07-29T06:32:55;101537.78;;;24.36;48.09
54882;BME280;40775;51.448;4.742;2022-07-29T06:35:23;101540.44;;;24.38;48.16
54882;BME280;40775;51.448;4.742;2022-07-29T06:38:08;101537.75;;;24.39;47.98
54882;BME280;40775;51.448;4.742;2022-07-29T06:40:56;101541.28;;;24.41;48.00
54882;BME280;40775;51.448;4.742;2022-07-29T06:43:35;101541.22;;;24.43;47.95
54882;BME280;40775;51.448;4.742;2022-07-29T06:46:21;101553.66;;;24.47;48.01
54882;BME280;40775;51.448;4.742;2022-07-29T06:48:50;101553.56;;;24.50;47.89
54882;BME280;40775;51.448;4.742;2022-07-29T06:51:18;101554.41;;;24.52;47.92
54882;BME280;40775;51.448;4.742;2022-07-29T06:53:50;101548.88;;;24.58;47.87
54882;BME280;40775;51.448;4.742;2022-07-29T06:56:33;101553.44;;;24.54;48.02
54882;BME280;40775;51.448;4.742;2022-07-29T06:59:06;101548.94;;;24.55;47.80
54882;BME280;40775;51.448;4.742;2022-07-29T07:01:37;101564.97;;;24.58;47.98
54882;BME280;40775;51.448;4.742;2022-07-29T07:04:05;101563.13;;;24.60;47.96
54882;BME280;40775;51.448;4.742;2022-07-29T07:06:33;101565.69;;;24.64;47.78
54882;BME280;40775;51.448;4.742;2022-07-29T07:09:00;101567.47;;;24.65;47.80
54882;BME280;40775;51.448;4.742;2022-07-29T07:11:28;101565.72;;;24.63;47.87
54882;BME280;40775;51.448;4.742;2022-07-29T07:13:55;101563.88;;;24.67;47.73
54882;BME280;40775;51.448;4.742;2022-07-29T07:16:29;101562.91;;;24.69;48.00
54882;BME280;40775;51.448;4.742;2022-07-29T07:18:58;101560.19;;;24.71;47.79
54882;BME280;40775;51.448;4.742;2022-07-29T07:21:25;101566.50;;;24.68;47.95
54882;BME280;40775;51.448;4.742;2022-07-29T07:23:56;101566.50;;;24.68;47.81
54882;BME280;40775;51.448;4.742;2022-07-29T07:26:23;101566.47;;;24.70;47.87
54882;BME280;40775;51.448;4.742;2022-07-29T07:28:51;101560.19;;;24.71;47.89
54882;BME280;40775;51.448;4.742;2022-07-29T07:31:18;101568.16;;;24.74;47.71
54882;BME280;40775;51.448;4.742;2022-07-29T07:33:46;101564.63;;;24.72;47.92
54882;BME280;40775;51.448;4.742;2022-07-29T07:36:13;101570.00;;;24.72;47.76
54882;BME280;40775;51.448;4.742;2022-07-29T07:38:41;101569.94;;;24.73;48.14
54882;BME280;40775;51.448;4.742;2022-07-29T07:41:08;101571.66;;;24.76;47.67
54882;BME280;40775;51.448;4.742;2022-07-29T07:43:35;101568.94;;;24.77;47.74
54882;BME280;40775;51.448;4.742;2022-07-29T07:46:03;101564.31;;;24.82;47.80
54882;BME280;40775;51.448;4.742;2022-07-29T07:48:30;101554.53;;;24.80;47.75
54882;BME280;40775;51.448;4.742;2022-07-29T07:50:58;101551.94;;;24.77;47.77
54882;BME280;40775;51.448;4.742;2022-07-29T07:53:25;101548.28;;;24.79;47.94
54882;BME280;40775;51.448;4.742;2022-07-29T07:55:53;101549.22;;;24.78;47.80
54882;BME280;40775;51.448;4.742;2022-07-29T07:58:38;101542.97;;;24.78;47.74
54882;BME280;40775;51.448;4.742;2022-07-29T08:01:06;101547.53;;;24.74;47.77
54882;BME280;40775;51.448;4.742;2022-07-29T08:03:34;101544.78;;;24.77;47.87
54882;BME280;40775;51.448;4.742;2022-07-29T08:06:02;101548.28;;;24.79;47.86
54882;BME280;40775;51.448;4.742;2022-07-29T08:08:30;101551.13;;;24.75;47.83
54882;BME280;40775;51.448;4.742;2022-07-29T08:10:57;101556.44;;;24.76;47.90
54882;BME280;40775;51.448;4.742;2022-07-29T08:13:31;101555.56;;;24.76;47.97
54882;BME280;40775;51.448;4.742;2022-07-29T08:15:59;101559.22;;;24.73;47.99
54882;BME280;40775;51.448;4.742;2022-07-29T08:18:30;101554.47;;;24.83;47.90
54882;BME280;40775;51.448;4.742;2022-07-29T08:20:58;101564.38;;;24.81;47.83
54882;BME280;40775;51.448;4.742;2022-07-29T08:23:26;101560.72;;;24.83;47.84
54882;BME280;40775;51.448;4.742;2022-07-29T08:26:00;101561.72;;;24.79;47.73
54882;BME280;40775;51.448;4.742;2022-07-29T08:28:28;101562.59;;;24.80;48.11
54882;BME280;40775;51.448;4.742;2022-07-29T08:30:55;101569.78;;;24.79;48.02
54882;BME280;40775;51.448;4.742;2022-07-29T08:33:22;101574.81;;;24.91;48.17
54882;BME280;40775;51.448;4.742;2022-07-29T08:35:50;101578.31;;;24.95;48.05
54882;BME280;40775;51.448;4.742;2022-07-29T08:38:17;101574.81;;;24.91;47.79
54882;BME280;40775;51.448;4.742;2022-07-29T08:40:46;101579.38;;;24.88;47.80
54882;BME280;40775;51.448;4.742;2022-07-29T08:43:13;101573.22;;;24.84;47.64
54882;BME280;40775;51.448;4.742;2022-07-29T08:45:49;101569.69;;;24.82;48.03
54882;BME280;40775;51.448;4.742;2022-07-29T08:48:22;101575.03;;;24.84;47.87
54882;BME280;40775;51.448;4.742;2022-07-29T08:50:56;101576.03;;;24.80;47.99
54882;BME280;40775;51.448;4.742;2022-07-29T08:53:26;101565.25;;;24.81;48.03
54882;BME280;40775;51.448;4.742;2022-07-29T08:55:55;101566.97;;;24.84;48.46
54882;BME280;40775;51.448;4.742;2022-07-29T08:58:25;101570.81;;;25.08;47.82
54882;BME280;40775;51.448;4.742;2022-07-29T09:00:55;101564.59;;;25.06;47.64
54882;BME280;40775;51.448;4.742;2022-07-29T09:03:25;101568.13;;;25.08;48.25
54882;BME280;40775;51.448;4.742;2022-07-29T09:05:54;101564.28;;;25.16;47.56
54882;BME280;40775;51.448;4.742;2022-07-29T09:08:22;101567.56;;;25.27;47.08
54882;BME280;40775;51.448;4.742;2022-07-29T09:10:50;101564.75;;;25.32;46.05
54882;BME280;40775;51.448;4.742;2022-07-29T09:13:18;101571.34;;;25.51;45.70
54882;BME280;40775;51.448;4.742;2022-07-29T09:15:45;101575.00;;;25.49;46.24
54882;BME280;40775;51.448;4.742;2022-07-29T09:18:32;101568.41;;;25.30;46.54
54882;BME280;40775;51.448;4.742;2022-07-29T09:21:00;101567.03;;;25.15;46.99
54882;BME280;40775;51.448;4.742;2022-07-29T09:24:04;101569.97;;;25.06;47.41
54882;BME280;40775;51.448;4.742;2022-07-29T09:26:32;101576.47;;;24.99;47.96
54882;BME280;40775;51.448;4.742;2022-07-29T09:29:01;101559.69;;;25.20;47.27
54882;BME280;40775;51.448;4.742;2022-07-29T09:31:36;101573.31;;;25.14;47.24
54882;BME280;40775;51.448;4.742;2022-07-29T09:34:05;101573.41;;;25.11;47.12
54882;BME280;40775;51.448;4.742;2022-07-29T09:36:44;101567.03;;;25.15;47.08
54882;BME280;40775;51.448;4.742;2022-07-29T09:39:12;101562.25;;;25.55;45.87
54882;BME280;40775;51.448;4.742;2022-07-29T09:41:53;101568.59;;;25.53;46.48
54882;BME280;40775;51.448;4.742;2022-07-29T09:44:22;101572.34;;;25.47;46.30
54882;BME280;40775;51.448;4.742;2022-07-29T09:47:01;101560.50;;;25.54;46.28
54882;BME280;40775;51.448;4.742;2022-07-29T09:49:49;101560.38;;;25.57;46.17
54882;BME280;40775;51.448;4.742;2022-07-29T09:52:18;101557.41;;;25.37;46.55
54882;BME280;40775;51.448;4.742;2022-07-29T09:54:45;101547.13;;;25.22;47.70
54882;BME280;40775;51.448;4.742;2022-07-29T09:57:42;101557.97;;;25.17;47.22
54882;BME280;40775;51.448;4.742;2022-07-29T10:00:16;101556.38;;;25.12;47.32
54882;BME280;40775;51.448;4.742;2022-07-29T10:02:46;101560.44;;;25.26;46.67
54882;BME280;40775;51.448;4.742;2022-07-29T10:05:24;101556.41;;;25.71;44.94
54882;BME280;40775;51.448;4.742;2022-07-29T10:08:01;101561.91;;;25.66;45.49
54882;BME280;40775;51.448;4.742;2022-07-29T10:10:32;101552.63;;;25.78;45.46
54882;BME280;40775;51.448;4.742;2022-07-29T10:13:07;101554.22;;;25.54;46.14
54882;BME280;40775;51.448;4.742;2022-07-29T10:15:42;101556.31;;;25.74;45.24
54882;BME280;40775;51.448;4.742;2022-07-29T10:18:12;101549.16;;;26.02;44.17
54882;BME280;40775;51.448;4.742;2022-07-29T10:20:40;101553.31;;;25.84;44.96
54882;BME280;40775;51.448;4.742;2022-07-29T10:23:09;101555.38;;;25.75;46.76
54882;BME280;40775;51.448;4.742;2022-07-29T10:25:36;101549.84;;;25.51;46.23
54882;BME280;40775;51.448;4.742;2022-07-29T10:28:06;101557.41;;;25.37;46.80
54882;BME280;40775;51.448;4.742;2022-07-29T10:30:33;101557.69;;;25.28;46.91
54882;BME280;40775;51.448;4.742;2022-07-29T10:44:25;101551.75;;;26.32;42.05
54882;BME280;40775;51.448;4.742;2022-07-29T10:46:55;101561.38;;;26.40;40.11
54882;BME280;40775;51.448;4.742;2022-07-29T10:49:25;101558.47;;;26.18;43.37
54882;BME280;40775;51.448;4.742;2022-07-29T10:52:14;101552.94;;;25.95;43.82
54882;BME280;40775;51.448;4.742;2022-07-29T10:54:44;101548.13;;;26.06;42.85
54882;BME280;40775;51.448;4.742;2022-07-29T10:57:27;101545.50;;;25.77;44.56
54882;BME280;40775;51.448;4.742;2022-07-29T11:00:25;101544.22;;;25.59;45.39
54882;BME280;40775;51.448;4.742;2022-07-29T11:02:53;101547.81;;;25.87;44.06
54882;BME280;40775;51.448;4.742;2022-07-29T11:05:23;101548.97;;;26.61;37.00
54882;BME280;40775;51.448;4.742;2022-07-29T11:13:47;101538.28;;;26.85;37.63
54882;BME280;40775;51.448;4.742;2022-07-29T11:16:15;101540.25;;;26.53;40.06
54882;BME280;40775;51.448;4.742;2022-07-29T11:21:44;101540.91;;;26.86;36.69
54882;BME280;40775;51.448;4.742;2022-07-29T11:24:27;101541.78;;;26.87;36.57
54882;BME280;40775;51.448;4.742;2022-07-29T11:32:23;101539.56;;;26.73;37.88
54882;BME280;40775;51.448;4.742;2022-07-29T11:35:15;101545.75;;;26.50;40.18
54882;BME280;40775;51.448;4.742;2022-07-29T11:37:45;101543.09;;;26.22;41.91
54882;BME280;40775;51.448;4.742;2022-07-29T11:40:22;101543.88;;;27.03;37.87
54882;BME280;40775;51.448;4.742;2022-07-29T11:42:50;101544.06;;;27.22;37.34
54882;BME280;40775;51.448;4.742;2022-07-29T11:45:23;101539.47;;;27.01;38.66
54882;BME280;40775;51.448;4.742;2022-07-29T11:48:16;101554.63;;;26.78;43.21
54882;BME280;40775;51.448;4.742;2022-07-29T11:50:58;101542.00;;;26.28;43.01
54882;BME280;40775;51.448;4.742;2022-07-29T11:53:26;101548.25;;;26.81;39.40
54882;BME280;40775;51.448;4.742;2022-07-29T11:55:59;101550.44;;;26.45;42.61
54882;BME280;40775;51.448;4.742;2022-07-29T11:58:29;101555.00;;;26.43;42.69
54882;BME280;40775;51.448;4.742;2022-07-29T12:00:57;101540.38;;;26.50;42.08
54882;BME280;40775;51.448;4.742;2022-07-29T12:03:45;101549.13;;;26.29;43.09
54882;BME280;40775;51.448;4.742;2022-07-29T12:06:14;101554.06;;;26.44;42.84
54882;BME280;40775;51.448;4.742;2022-07-29T12:08:44;101545.06;;;26.17;43.84
54882;BME280;40775;51.448;4.742;2022-07-29T12:11:19;101549.56;;;26.16;42.89
54882;BME280;40775;51.448;4.742;2022-07-29T12:13:50;101550.72;;;26.09;44.04
54882;BME280;40775;51.448;4.742;2022-07-29T12:16:18;101548.50;;;25.94;44.68
54882;BME280;40775;51.448;4.742;2022-07-29T12:18:58;101549.34;;;26.23;44.19
54882;BME280;40775;51.448;4.742;2022-07-29T12:21:51;101558.59;;;26.68;38.83
54882;BME280;40775;51.448;4.742;2022-07-29T12:24:23;101550.91;;;26.58;41.68
54882;BME280;40775;51.448;4.742;2022-07-29T12:26:59;101554.88;;;26.46;43.18
54882;BME280;40775;51.448;4.742;2022-07-29T12:29:26;101542.38;;;26.17;43.65
54882;BME280;40775;51.448;4.742;2022-07-29T12:32:02;101546.59;;;25.98;44.65
54882;BME280;40775;51.448;4.742;2022-07-29T12:34:32;101548.72;;;25.88;44.82
54882;BME280;40775;51.448;4.742;2022-07-29T12:36:59;101550.56;;;25.86;44.93
54882;BME280;40775;51.448;4.742;2022-07-29T12:39:28;101541.66;;;26.12;44.71
54882;BME280;40775;51.448;4.742;2022-07-29T12:41:55;101547.50;;;26.25;43.82
54882;BME280;40775;51.448;4.742;2022-07-29T12:44:50;101544.50;;;26.07;45.30
54882;BME280;40775;51.448;4.742;2022-07-29T12:47:19;101547.28;;;26.04;45.35
54882;BME280;40775;51.448;4.742;2022-07-29T12:49:47;101550.44;;;26.70;39.52
54882;BME280;40775;51.448;4.742;2022-07-29T12:52:31;101553.78;;;27.03;37.96
54882;BME280;40775;51.448;4.742;2022-07-29T12:54:59;101551.91;;;27.98;35.33
54882;BME280;40775;51.448;4.742;2022-07-29T12:57:29;101549.59;;;27.66;36.02
54882;BME280;40775;51.448;4.742;2022-07-29T13:00:04;101544.78;;;27.27;38.96
54882;BME280;40775;51.448;4.742;2022-07-29T13:02:32;101544.69;;;26.80;41.45
54882;BME280;40775;51.448;4.742;2022-07-29T13:05:00;101550.75;;;26.62;42.32
54882;BME280;40775;51.448;4.742;2022-07-29T13:07:31;101549.44;;;26.99;40.31
54882;BME280;40775;51.448;4.742;2022-07-29T13:10:20;101541.47;;;28.11;35.02
54882;BME280;40775;51.448;4.742;2022-07-29T13:13:06;101543.22;;;27.68;38.18
54882;BME280;40775;51.448;4.742;2022-07-29T13:15:37;101542.44;;;27.65;39.33
54882;BME280;40775;51.448;4.742;2022-07-29T13:18:25;101541.63;;;27.63;36.70
54882;BME280;40775;51.448;4.742;2022-07-29T13:20:53;101539.38;;;27.51;38.56
54882;BME280;40775;51.448;4.742;2022-07-29T13:23:21;101543.63;;;27.09;40.81
54882;BME280;40775;51.448;4.742;2022-07-29T13:25:49;101538.69;;;27.69;39.80
54882;BME280;40775;51.448;4.742;2022-07-29T13:28:16;101543.34;;;28.09;36.49
54882;BME280;40775;51.448;4.742;2022-07-29T13:30:44;101535.75;;;27.52;39.09
54882;BME280;40775;51.448;4.742;2022-07-29T13:33:12;101543.00;;;27.03;41.74
54882;BME280;40775;51.448;4.742;2022-07-29T13:35:39;101546.00;;;26.69;43.19
54882;BME280;40775;51.448;4.742;2022-07-29T13:38:07;101543.78;;;26.55;44.27
54882;BME280;40775;51.448;4.742;2022-07-29T13:40:34;101537.16;;;27.15;40.29
54882;BME280;40775;51.448;4.742;2022-07-29T13:43:02;101536.59;;;26.80;43.16
54882;BME280;40775;51.448;4.742;2022-07-29T13:45:30;101535.78;;;26.78;44.33
54882;BME280;40775;51.448;4.742;2022-07-29T13:48:00;101534.56;;;27.35;38.75
54882;BME280;40775;51.448;4.742;2022-07-29T13:50:27;101529.28;;;27.56;39.02
54882;BME280;40775;51.448;4.742;2022-07-29T13:52:55;101540.31;;;27.03;42.14
54882;BME280;40775;51.448;4.742;2022-07-29T13:55:23;101541.97;;;26.80;42.62
54882;BME280;40775;51.448;4.742;2022-07-29T13:57:51;101542.06;;;27.27;40.23